BBC Maine — V2CN8 — position and weather

sailwx.info

Track history (hours):
 
Tides and Currents Weather Stations Pressure Air Temp Water Temp Dewpoint Dewpoint Depression Visibility Wind Speed Wind Dir Waves Ship Positions

BBC Maine

Last reported at 2018-Jun-18 05:04 UTC. Time now 2018-Jun-24 15:09 UTC.
Position N 40°24' W 031°01'.

Length 138 m; draft 7.1 m.

Type: Cargo ship. MMSI: 305056000.

Date/timePositionNaut miles runAvg speedWind from/ knotsBaromVisibWave heightAir tempDewpointWater temp
2018-Jun-18 05:04N 40°24' W 031°01'  
2018-Jun-14 02:15N 49°30' W 005°59'310.7
2018-Jun-14 02:00N 49°31' W 005°55'1411.7
2018-Jun-14 00:47N 49°35' W 005°34'4113.1
2018-Jun-13 21:37N 49°43' W 004°31'3912.4
2018-Jun-13 18:27N 49°53' W 003°33'511.2
2018-Jun-13 17:59N 49°55' W 003°25'611.6
2018-Jun-13 17:30N 49°56' W 003°16'612.0
2018-Jun-13 17:00N 49°57' W 003°07'612.1
2018-Jun-13 16:30N 49°59' W 002°58'612.9
2018-Jun-13 16:00N 50°01' W 002°48'1414.0
2018-Jun-13 14:58N 50°05' W 002°27'715.6
2018-Jun-13 14:31N 50°06' W 002°16'916.6
2018-Jun-13 13:57N 50°09' W 002°02'717.0
2018-Jun-13 13:30N 50°11' W 001°51'917.2
2018-Jun-13 13:01N 50°14' W 001°38'817.0
2018-Jun-13 12:31N 50°16' W 001°25'816.4
2018-Jun-13 12:01N 50°18' W 001°13'815.6
2018-Jun-13 11:30N 50°20' W 001°01'814.5
2018-Jun-13 10:59N 50°22' W 000°49'613.2
2018-Jun-13 10:30N 50°24' W 000°40'712.7
2018-Jun-13 09:55N 50°26' W 000°29'512.5
2018-Jun-13 09:30N 50°27' W 000°21'612.1
2018-Jun-13 08:59N 50°29' W 000°11'611.8
2018-Jun-13 08:30N 50°30' W 000°03'611.5
2018-Jun-13 08:00N 50°32' E 000°06'711.5
2018-Jun-13 07:22N 50°34' E 000°17'511.8
2018-Jun-13 06:56N 50°35' E 000°25'512.2
2018-Jun-13 06:30N 50°37' E 000°33'713.3
2018-Jun-13 06:00N 50°40' E 000°42'714.3
2018-Jun-13 05:31N 50°44' E 000°51'814.7
2018-Jun-13 05:00N 50°48' E 001°01'1015.0
2018-Jun-13 04:18N 50°54' E 001°15'515.2
2018-Jun-13 04:00N 50°57' E 001°20'714.6
2018-Jun-13 03:30N 51°02' E 001°28'713.2
2018-Jun-13 03:00N 51°06' E 001°36'612.7
2018-Jun-13 02:30N 51°11' E 001°43'612.1
2018-Jun-13 02:00N 51°16' E 001°49'611.6
2018-Jun-13 01:31N 51°21' E 001°55'611.1
2018-Jun-13 01:00N 51°25' E 002°00'611.8
2018-Jun-13 00:30N 51°23' E 002°09'611.8
2018-Jun-13 00:00N 51°20' E 002°18'611.2
2018-Jun-12 23:28N 51°22' E 002°27'611.5
2018-Jun-12 22:57N 51°22' E 002°36'511.6
2018-Jun-12 22:29N 51°22' E 002°45'511.3
2018-Jun-12 22:00N 51°23' E 002°54'612.7
2018-Jun-12 21:30N 51°24' E 003°03'612.4
2018-Jun-12 21:00N 51°25' E 003°13'612.4
2018-Jun-12 20:30N 51°25' E 003°23'612.6
2018-Jun-12 20:00N 51°26' E 003°33'5 9.0
2018-Jun-12 19:30N 51°26' E 003°40'612.2
2018-Jun-12 19:00N 51°22' E 003°46'713.0
2018-Jun-12 18:30N 51°23' E 003°57'4 7.3
2018-Jun-12 18:00N 51°24' E 004°02'510.9
2018-Jun-12 17:31N 51°24' E 004°11'510.8
2018-Jun-12 17:00N 51°20' E 004°16'4 7.5
2018-Jun-12 16:31N 51°17' E 004°20'0 0.0
2018-Jun-12 16:00N 51°17' E 004°20'0 0.8
2018-Jun-12 15:30N 51°17' E 004°21'1 2.2
2018-Jun-12 15:00N 51°17' E 004°22'0 0.0
2018-Jun-12 14:30N 51°17' E 004°22'0 0.0
2018-Jun-12 14:00N 51°17' E 004°22'0 0.0
2018-Jun-12 13:24N 51°17' E 004°22'0 0.0
2018-Jun-12 13:00N 51°17' E 004°22'0 0.0
2018-Jun-12 04:37N 51°17' E 004°22'0 0.0
2018-Jun-12 04:30N 51°17' E 004°22'0 0.0
2018-Jun-12 04:01N 51°17' E 004°22'0 0.0
2018-Jun-12 03:30N 51°17' E 004°22'0 0.0
2018-Jun-12 03:01N 51°17' E 004°22'0 0.0
2018-Jun-12 02:31N 51°17' E 004°22'0 0.0
2018-Jun-12 02:00N 51°17' E 004°22'0 0.0
2018-Jun-12 01:30N 51°17' E 004°22'0 0.0
2018-Jun-12 01:01N 51°17' E 004°22'0 0.0
2018-Jun-12 00:30N 51°17' E 004°22'0 0.0
2018-Jun-12 00:01N 51°17' E 004°22'0 0.0
2018-Jun-11 23:30N 51°17' E 004°22'0 0.0
2018-Jun-11 23:01N 51°17' E 004°22'0 0.0
2018-Jun-11 22:31N 51°17' E 004°22'0 0.0
2018-Jun-11 22:01N 51°17' E 004°22'1 2.4
2018-Jun-11 21:30N 51°17' E 004°20'2 4.9
2018-Jun-11 21:01N 51°19' E 004°19'2 3.4
2018-Jun-11 20:30N 51°21' E 004°17'0 0.0
2018-Jun-11 20:00N 51°21' E 004°17'0 0.0
2018-Jun-11 19:30N 51°21' E 004°17'0 0.0
2018-Jun-11 19:00N 51°21' E 004°17'1 2.6
2018-Jun-11 18:30N 51°21' E 004°15'4 7.5
2018-Jun-11 18:00N 51°24' E 004°10'510.2
2018-Jun-11 17:31N 51°23' E 004°02'4 7.2
2018-Jun-11 17:00N 51°25' E 003°58'510.5
2018-Jun-11 16:30N 51°21' E 003°53'5 9.7
2018-Jun-11 16:00N 51°22' E 003°45'5 9.7
2018-Jun-11 15:30N 51°25' E 003°39'5 9.0
2018-Jun-11 15:00N 51°27' E 003°32'611.4
2018-Jun-11 14:30N 51°31' E 003°26'611.9
2018-Jun-11 14:00N 51°36' E 003°22'713.0
2018-Jun-11 13:29N 51°42' E 003°17'510.4
2018-Jun-11 13:00N 51°47' E 003°15'612.0
2018-Jun-11 12:30N 51°53' E 003°18'612.0
2018-Jun-11 11:59N 51°59' E 003°20'611.8
2018-Jun-11 11:30N 52°05' E 003°22'611.9
2018-Jun-11 11:00N 52°10' E 003°23'612.6
2018-Jun-11 10:30N 52°17' E 003°24'713.0
2018-Jun-11 10:00N 52°23' E 003°25'713.4
2018-Jun-11 09:30N 52°30' E 003°26'713.6
2018-Jun-11 09:01N 52°36' E 003°30'714.2
2018-Jun-11 08:30N 52°42' E 003°37'714.4
2018-Jun-11 08:01N 52°47' E 003°45'814.6
2018-Jun-11 07:28N 52°53' E 003°54'714.5
2018-Jun-11 07:01N 52°58' E 004°01'1514.1
2018-Jun-11 05:57N 53°08' E 004°19'813.3
2018-Jun-11 05:19N 53°15' E 004°27'613.4
2018-Jun-11 04:53N 53°20' E 004°31'1711.6
2018-Jun-11 03:28N 53°32' E 004°50'912.3
2018-Jun-11 02:46N 53°35' E 005°04'512.5
2018-Jun-11 02:24N 53°37' E 005°11'812.9
2018-Jun-11 01:46N 53°39' E 005°24'9313.6
2018-Jun-10 18:59N 54°01' E 007°57'911.7
2018-Jun-10 18:15N 54°01' E 008°11'311.1
2018-Jun-10 17:58N 54°00' E 008°16'510.5
2018-Jun-10 17:30N 53°59' E 008°25'510.6
2018-Jun-10 17:00N 53°58' E 008°33'611.6
2018-Jun-10 16:30N 53°55' E 008°41'713.5
2018-Jun-10 16:01N 53°50' E 008°50'714.5
2018-Jun-10 15:30N 53°52' E 009°02'612.3
2018-Jun-10 15:00N 53°53' E 009°12'1414.5
2018-Jun-10 14:00N 53°42' E 009°29'713.8
2018-Jun-10 13:30N 53°36' E 009°35'612.0
2018-Jun-10 13:00N 53°34' E 009°44'510.9
2018-Jun-10 12:30N 53°33' E 009°53'4 7.8
2018-Jun-10 12:00N 53°32' E 009°59'0 0.1
2018-Jun-10 11:30N 53°32' E 009°59'0 0.0
2018-Jun-10 11:00N 53°32' E 009°59'0 0.0
2018-Jun-10 10:30N 53°32' E 009°59'0 0.0
2018-Jun-10 10:01N 53°32' E 009°59'0 0.0
2018-Jun-10 09:30N 53°32' E 009°59'0 0.0
2018-Jun-10 09:01N 53°32' E 009°59'0 0.0
2018-Jun-10 08:31N 53°32' E 009°59'0 0.0
2018-Jun-10 08:01N 53°32' E 009°59'0 0.0
2018-Jun-10 07:30N 53°32' E 009°59'0 0.0
2018-Jun-10 07:01N 53°32' E 009°59'0 0.0
2018-Jun-10 06:31N 53°32' E 009°59'0 0.0
2018-Jun-10 06:00N 53°32' E 009°59'0 0.0
2018-Jun-10 05:30N 53°32' E 009°59'0 0.0
2018-Jun-10 05:00N 53°32' E 009°59'0 0.0
2018-Jun-10 04:30N 53°32' E 009°59'0 0.0
2018-Jun-10 04:00N 53°32' E 009°59'0 0.0
2018-Jun-10 03:30N 53°32' E 009°59'0 0.0
2018-Jun-10 03:00N 53°32' E 009°59'0 0.0
2018-Jun-10 02:30N 53°32' E 009°59'0 0.0
2018-Jun-10 02:00N 53°32' E 009°59'0 0.0
2018-Jun-10 01:30N 53°32' E 009°59'0 0.0
2018-Jun-10 01:00N 53°32' E 009°59'0 0.0
2018-Jun-10 00:30N 53°32' E 009°59'0 0.0
2018-Jun-10 00:00N 53°32' E 009°59'0 0.0
2018-Jun-09 23:30N 53°32' E 009°59'0 0.0
2018-Jun-09 23:00N 53°32' E 009°59'0 0.0
2018-Jun-09 22:30N 53°32' E 009°59'0 0.0
2018-Jun-09 22:00N 53°32' E 009°59'0 0.0
2018-Jun-09 21:30N 53°32' E 009°59'0 0.0
2018-Jun-09 21:01N 53°32' E 009°59'0 0.0
2018-Jun-09 20:30N 53°32' E 009°59'0 0.0
2018-Jun-09 20:00N 53°32' E 009°59'0 0.0
2018-Jun-09 19:30N 53°32' E 009°59'0 0.0
2018-Jun-09 19:00N 53°32' E 009°59'0 0.0
2018-Jun-09 18:30N 53°32' E 009°59'0 0.0
2018-Jun-09 18:01N 53°32' E 009°59'0 0.0
2018-Jun-09 17:31N 53°32' E 009°59'0 0.0
2018-Jun-09 17:00N 53°32' E 009°59'0 0.0
2018-Jun-09 16:31N 53°32' E 009°59'0 0.0
2018-Jun-09 16:00N 53°32' E 009°59'0 0.0
2018-Jun-09 15:00N 53°32' E 009°59'0 0.0
2018-Jun-09 14:30N 53°32' E 009°59'0 0.0
2018-Jun-09 14:00N 53°32' E 009°59'0 0.0
2018-Jun-09 13:30N 53°32' E 009°59'0 0.0
2018-Jun-09 13:00N 53°32' E 009°59'0 0.0
2018-Jun-09 12:13N 53°32' E 009°59'0 0.0
2018-Jun-09 12:00N 53°32' E 009°59'0 0.0
2018-Jun-09 11:30N 53°32' E 009°59'0 0.0
2018-Jun-09 11:00N 53°32' E 009°59'2 4.4
2018-Jun-09 10:30N 53°32' E 009°56'510.8
2018-Jun-09 10:00N 53°33' E 009°47'5 9.1
2018-Jun-09 09:30N 53°34' E 009°39'4 8.9
2018-Jun-09 09:00N 53°37' E 009°33'5 9.7
2018-Jun-09 08:30N 53°41' E 009°30'611.3
2018-Jun-09 08:01N 53°46' E 009°24'714.3
2018-Jun-09 07:30N 53°52' E 009°17'510.9
2018-Jun-09 07:01N 53°54' E 009°08'0 0.4
2018-Jun-09 06:30N 53°54' E 009°09'2 4.2
2018-Jun-09 06:00N 53°55' E 009°11'4 8.5
2018-Jun-09 05:30N 53°58' E 009°16'4 8.1
2018-Jun-09 05:00N 54°02' E 009°18'3 6.2
2018-Jun-09 04:30N 54°05' E 009°19'4 7.9
2018-Jun-09 04:00N 54°09' E 009°22'4 8.6
2018-Jun-09 03:30N 54°11' E 009°28'4 8.4
2018-Jun-09 03:00N 54°13' E 009°35'3 6.6
2018-Jun-09 02:30N 54°16' E 009°37'3 5.1
2018-Jun-09 02:00N 54°17' E 009°40'3 6.0
2018-Jun-09 01:31N 54°20' E 009°44'3 6.6
2018-Jun-09 01:00N 54°22' E 009°48'5 8.0
2018-Jun-09 00:23N 54°20' E 009°56'3 6.6
2018-Jun-09 00:00N 54°21' E 010°00'4 7.4
2018-Jun-08 23:27N 54°22' E 010°07'1 1.4
2018-Jun-08 22:53N 54°22' E 010°09'1 3.1
2018-Jun-08 22:30N 54°22' E 010°10'611.2
2018-Jun-08 22:00N 54°27' E 010°14'511.0
2018-Jun-08 21:31N 54°31' E 010°21'713.2
2018-Jun-08 21:00N 54°34' E 010°32'613.0
2018-Jun-08 20:30N 54°35' E 010°43'713.0
2018-Jun-08 19:59N 54°36' E 010°54'613.4
2018-Jun-08 19:30N 54°36' E 011°05'713.2
2018-Jun-08 19:01N 54°34' E 011°16'713.7
2018-Jun-08 18:30N 54°31' E 011°27'713.6
2018-Jun-08 18:00N 54°29' E 011°38'713.3
2018-Jun-08 17:30N 54°27' E 011°49'713.4
2018-Jun-08 17:00N 54°27' E 012°00'612.0
2018-Jun-08 16:29N 54°29' E 012°10'1912.5
2018-Jun-08 14:58N 54°43' E 012°31'713.3
2018-Jun-08 14:27N 54°47' E 012°41'713.5
2018-Jun-08 13:58N 54°50' E 012°52'613.2
2018-Jun-08 13:30N 54°51' E 013°02'713.3
2018-Jun-08 12:59N 54°54' E 013°13'613.3
2018-Jun-08 12:30N 54°51' E 013°23'713.4
2018-Jun-08 12:00N 54°49' E 013°34'713.2
2018-Jun-08 11:30N 54°46' E 013°45'713.3
2018-Jun-08 10:59N 54°44' E 013°56'613.2
2018-Jun-08 10:30N 54°42' E 014°07'713.2
2018-Jun-08 10:00N 54°39' E 014°17'713.0
2018-Jun-08 09:27N 54°38' E 014°30'613.3
2018-Jun-08 09:00N 54°39' E 014°40'713.5
2018-Jun-08 08:30N 54°40' E 014°52'713.4
2018-Jun-08 08:00N 54°41' E 015°03'613.1
2018-Jun-08 07:30N 54°42' E 015°14'713.2
2018-Jun-08 07:00N 54°43' E 015°25'713.1
2018-Jun-08 06:30N 54°44' E 015°36'713.1
2018-Jun-08 06:00N 54°45' E 015°48'1113.1
2018-Jun-08 05:09N 54°47' E 016°07'  
Track history (hours):
 
Tides and Currents Weather Stations Pressure Air Temp Water Temp Dewpoint Dewpoint Depression Visibility Wind Speed Wind Dir Waves Ship Positions

BBC Maine

Last reported at 2018-Jun-18 05:04 UTC. Time now 2018-Jun-24 15:09 UTC.
Position N 40°24' W 031°01'.

Length 138 m; draft 7.1 m.

Type: Cargo ship. MMSI: 305056000.

Date/timePositionNaut miles runAvg speedWind from/ knotsBaromVisibWave heightAir tempDewpointWater temp
2018-Jun-18 05:04N 40°24' W 031°01'  
2018-Jun-14 02:15N 49°30' W 005°59'310.7
2018-Jun-14 02:00N 49°31' W 005°55'1411.7
2018-Jun-14 00:47N 49°35' W 005°34'4113.1
2018-Jun-13 21:37N 49°43' W 004°31'3912.4
2018-Jun-13 18:27N 49°53' W 003°33'511.2
2018-Jun-13 17:59N 49°55' W 003°25'611.6
2018-Jun-13 17:30N 49°56' W 003°16'612.0
2018-Jun-13 17:00N 49°57' W 003°07'612.1
2018-Jun-13 16:30N 49°59' W 002°58'612.9
2018-Jun-13 16:00N 50°01' W 002°48'1414.0
2018-Jun-13 14:58N 50°05' W 002°27'715.6
2018-Jun-13 14:31N 50°06' W 002°16'916.6
2018-Jun-13 13:57N 50°09' W 002°02'717.0
2018-Jun-13 13:30N 50°11' W 001°51'917.2
2018-Jun-13 13:01N 50°14' W 001°38'817.0
2018-Jun-13 12:31N 50°16' W 001°25'816.4
2018-Jun-13 12:01N 50°18' W 001°13'815.6
2018-Jun-13 11:30N 50°20' W 001°01'814.5
2018-Jun-13 10:59N 50°22' W 000°49'613.2
2018-Jun-13 10:30N 50°24' W 000°40'712.7
2018-Jun-13 09:55N 50°26' W 000°29'512.5
2018-Jun-13 09:30N 50°27' W 000°21'612.1
2018-Jun-13 08:59N 50°29' W 000°11'611.8
2018-Jun-13 08:30N 50°30' W 000°03'611.5
2018-Jun-13 08:00N 50°32' E 000°06'711.5
2018-Jun-13 07:22N 50°34' E 000°17'511.8
2018-Jun-13 06:56N 50°35' E 000°25'512.2
2018-Jun-13 06:30N 50°37' E 000°33'713.3
2018-Jun-13 06:00N 50°40' E 000°42'714.3
2018-Jun-13 05:31N 50°44' E 000°51'814.7
2018-Jun-13 05:00N 50°48' E 001°01'1015.0
2018-Jun-13 04:18N 50°54' E 001°15'515.2
2018-Jun-13 04:00N 50°57' E 001°20'714.6
2018-Jun-13 03:30N 51°02' E 001°28'713.2
2018-Jun-13 03:00N 51°06' E 001°36'612.7
2018-Jun-13 02:30N 51°11' E 001°43'612.1
2018-Jun-13 02:00N 51°16' E 001°49'611.6
2018-Jun-13 01:31N 51°21' E 001°55'611.1
2018-Jun-13 01:00N 51°25' E 002°00'611.8
2018-Jun-13 00:30N 51°23' E 002°09'611.8
2018-Jun-13 00:00N 51°20' E 002°18'611.2
2018-Jun-12 23:28N 51°22' E 002°27'611.5
2018-Jun-12 22:57N 51°22' E 002°36'511.6
2018-Jun-12 22:29N 51°22' E 002°45'511.3
2018-Jun-12 22:00N 51°23' E 002°54'612.7
2018-Jun-12 21:30N 51°24' E 003°03'612.4
2018-Jun-12 21:00N 51°25' E 003°13'612.4
2018-Jun-12 20:30N 51°25' E 003°23'612.6
2018-Jun-12 20:00N 51°26' E 003°33'5 9.0
2018-Jun-12 19:30N 51°26' E 003°40'612.2
2018-Jun-12 19:00N 51°22' E 003°46'713.0
2018-Jun-12 18:30N 51°23' E 003°57'4 7.3
2018-Jun-12 18:00N 51°24' E 004°02'510.9
2018-Jun-12 17:31N 51°24' E 004°11'510.8
2018-Jun-12 17:00N 51°20' E 004°16'4 7.5
2018-Jun-12 16:31N 51°17' E 004°20'0 0.0
2018-Jun-12 16:00N 51°17' E 004°20'0 0.8
2018-Jun-12 15:30N 51°17' E 004°21'1 2.2
2018-Jun-12 15:00N 51°17' E 004°22'0 0.0
2018-Jun-12 14:30N 51°17' E 004°22'0 0.0
2018-Jun-12 14:00N 51°17' E 004°22'0 0.0
2018-Jun-12 13:24N 51°17' E 004°22'0 0.0
2018-Jun-12 13:00N 51°17' E 004°22'0 0.0
2018-Jun-12 04:37N 51°17' E 004°22'0 0.0
2018-Jun-12 04:30N 51°17' E 004°22'0 0.0
2018-Jun-12 04:01N 51°17' E 004°22'0 0.0
2018-Jun-12 03:30N 51°17' E 004°22'0 0.0
2018-Jun-12 03:01N 51°17' E 004°22'0 0.0
2018-Jun-12 02:31N 51°17' E 004°22'0 0.0
2018-Jun-12 02:00N 51°17' E 004°22'0 0.0
2018-Jun-12 01:30N 51°17' E 004°22'0 0.0
2018-Jun-12 01:01N 51°17' E 004°22'0 0.0
2018-Jun-12 00:30N 51°17' E 004°22'0 0.0
2018-Jun-12 00:01N 51°17' E 004°22'0 0.0
2018-Jun-11 23:30N 51°17' E 004°22'0 0.0
2018-Jun-11 23:01N 51°17' E 004°22'0 0.0
2018-Jun-11 22:31N 51°17' E 004°22'0 0.0
2018-Jun-11 22:01N 51°17' E 004°22'1 2.4
2018-Jun-11 21:30N 51°17' E 004°20'2 4.9
2018-Jun-11 21:01N 51°19' E 004°19'2 3.4
2018-Jun-11 20:30N 51°21' E 004°17'0 0.0
2018-Jun-11 20:00N 51°21' E 004°17'0 0.0
2018-Jun-11 19:30N 51°21' E 004°17'0 0.0
2018-Jun-11 19:00N 51°21' E 004°17'1 2.6
2018-Jun-11 18:30N 51°21' E 004°15'4 7.5
2018-Jun-11 18:00N 51°24' E 004°10'510.2
2018-Jun-11 17:31N 51°23' E 004°02'4 7.2
2018-Jun-11 17:00N 51°25' E 003°58'510.5
2018-Jun-11 16:30N 51°21' E 003°53'5 9.7
2018-Jun-11 16:00N 51°22' E 003°45'5 9.7
2018-Jun-11 15:30N 51°25' E 003°39'5 9.0
2018-Jun-11 15:00N 51°27' E 003°32'611.4
2018-Jun-11 14:30N 51°31' E 003°26'611.9
2018-Jun-11 14:00N 51°36' E 003°22'713.0
2018-Jun-11 13:29N 51°42' E 003°17'510.4
2018-Jun-11 13:00N 51°47' E 003°15'612.0
2018-Jun-11 12:30N 51°53' E 003°18'612.0
2018-Jun-11 11:59N 51°59' E 003°20'611.8
2018-Jun-11 11:30N 52°05' E 003°22'611.9
2018-Jun-11 11:00N 52°10' E 003°23'612.6
2018-Jun-11 10:30N 52°17' E 003°24'713.0
2018-Jun-11 10:00N 52°23' E 003°25'713.4
2018-Jun-11 09:30N 52°30' E 003°26'713.6
2018-Jun-11 09:01N 52°36' E 003°30'714.2
2018-Jun-11 08:30N 52°42' E 003°37'714.4
2018-Jun-11 08:01N 52°47' E 003°45'814.6
2018-Jun-11 07:28N 52°53' E 003°54'714.5
2018-Jun-11 07:01N 52°58' E 004°01'1514.1
2018-Jun-11 05:57N 53°08' E 004°19'813.3
2018-Jun-11 05:19N 53°15' E 004°27'613.4
2018-Jun-11 04:53N 53°20' E 004°31'1711.6
2018-Jun-11 03:28N 53°32' E 004°50'912.3
2018-Jun-11 02:46N 53°35' E 005°04'512.5
2018-Jun-11 02:24N 53°37' E 005°11'812.9
2018-Jun-11 01:46N 53°39' E 005°24'9313.6
2018-Jun-10 18:59N 54°01' E 007°57'911.7
2018-Jun-10 18:15N 54°01' E 008°11'311.1
2018-Jun-10 17:58N 54°00' E 008°16'510.5
2018-Jun-10 17:30N 53°59' E 008°25'510.6
2018-Jun-10 17:00N 53°58' E 008°33'611.6
2018-Jun-10 16:30N 53°55' E 008°41'713.5
2018-Jun-10 16:01N 53°50' E 008°50'714.5
2018-Jun-10 15:30N 53°52' E 009°02'612.3
2018-Jun-10 15:00N 53°53' E 009°12'1414.5
2018-Jun-10 14:00N 53°42' E 009°29'713.8
2018-Jun-10 13:30N 53°36' E 009°35'612.0
2018-Jun-10 13:00N 53°34' E 009°44'510.9
2018-Jun-10 12:30N 53°33' E 009°53'4 7.8
2018-Jun-10 12:00N 53°32' E 009°59'0 0.1
2018-Jun-10 11:30N 53°32' E 009°59'0 0.0
2018-Jun-10 11:00N 53°32' E 009°59'0 0.0
2018-Jun-10 10:30N 53°32' E 009°59'0 0.0
2018-Jun-10 10:01N 53°32' E 009°59'0 0.0
2018-Jun-10 09:30N 53°32' E 009°59'0 0.0
2018-Jun-10 09:01N 53°32' E 009°59'0 0.0
2018-Jun-10 08:31N 53°32' E 009°59'0 0.0
2018-Jun-10 08:01N 53°32' E 009°59'0 0.0
2018-Jun-10 07:30N 53°32' E 009°59'0 0.0
2018-Jun-10 07:01N 53°32' E 009°59'0 0.0
2018-Jun-10 06:31N 53°32' E 009°59'0 0.0
2018-Jun-10 06:00N 53°32' E 009°59'0 0.0
2018-Jun-10 05:30N 53°32' E 009°59'0 0.0
2018-Jun-10 05:00N 53°32' E 009°59'0 0.0
2018-Jun-10 04:30N 53°32' E 009°59'0 0.0
2018-Jun-10 04:00N 53°32' E 009°59'0 0.0
2018-Jun-10 03:30N 53°32' E 009°59'0 0.0
2018-Jun-10 03:00N 53°32' E 009°59'0 0.0
2018-Jun-10 02:30N 53°32' E 009°59'0 0.0
2018-Jun-10 02:00N 53°32' E 009°59'0 0.0
2018-Jun-10 01:30N 53°32' E 009°59'0 0.0
2018-Jun-10 01:00N 53°32' E 009°59'0 0.0
2018-Jun-10 00:30N 53°32' E 009°59'0 0.0
2018-Jun-10 00:00N 53°32' E 009°59'0 0.0
2018-Jun-09 23:30N 53°32' E 009°59'0 0.0
2018-Jun-09 23:00N 53°32' E 009°59'0 0.0
2018-Jun-09 22:30N 53°32' E 009°59'0 0.0
2018-Jun-09 22:00N 53°32' E 009°59'0 0.0
2018-Jun-09 21:30N 53°32' E 009°59'0 0.0
2018-Jun-09 21:01N 53°32' E 009°59'0 0.0
2018-Jun-09 20:30N 53°32' E 009°59'0 0.0
2018-Jun-09 20:00N 53°32' E 009°59'0 0.0
2018-Jun-09 19:30N 53°32' E 009°59'0 0.0
2018-Jun-09 19:00N 53°32' E 009°59'0 0.0
2018-Jun-09 18:30N 53°32' E 009°59'0 0.0
2018-Jun-09 18:01N 53°32' E 009°59'0 0.0
2018-Jun-09 17:31N 53°32' E 009°59'0 0.0
2018-Jun-09 17:00N 53°32' E 009°59'0 0.0
2018-Jun-09 16:31N 53°32' E 009°59'0 0.0
2018-Jun-09 16:00N 53°32' E 009°59'0 0.0
2018-Jun-09 15:00N 53°32' E 009°59'0 0.0
2018-Jun-09 14:30N 53°32' E 009°59'0 0.0
2018-Jun-09 14:00N 53°32' E 009°59'0 0.0
2018-Jun-09 13:30N 53°32' E 009°59'0 0.0
2018-Jun-09 13:00N 53°32' E 009°59'0 0.0
2018-Jun-09 12:13N 53°32' E 009°59'0 0.0
2018-Jun-09 12:00N 53°32' E 009°59'0 0.0
2018-Jun-09 11:30N 53°32' E 009°59'0 0.0
2018-Jun-09 11:00N 53°32' E 009°59'2 4.4
2018-Jun-09 10:30N 53°32' E 009°56'510.8
2018-Jun-09 10:00N 53°33' E 009°47'5 9.1
2018-Jun-09 09:30N 53°34' E 009°39'4 8.9
2018-Jun-09 09:00N 53°37' E 009°33'5 9.7
2018-Jun-09 08:30N 53°41' E 009°30'611.3
2018-Jun-09 08:01N 53°46' E 009°24'714.3
2018-Jun-09 07:30N 53°52' E 009°17'510.9
2018-Jun-09 07:01N 53°54' E 009°08'0 0.4
2018-Jun-09 06:30N 53°54' E 009°09'2 4.2
2018-Jun-09 06:00N 53°55' E 009°11'4 8.5
2018-Jun-09 05:30N 53°58' E 009°16'4 8.1
2018-Jun-09 05:00N 54°02' E 009°18'3 6.2
2018-Jun-09 04:30N 54°05' E 009°19'4 7.9
2018-Jun-09 04:00N 54°09' E 009°22'4 8.6
2018-Jun-09 03:30N 54°11' E 009°28'4 8.4
2018-Jun-09 03:00N 54°13' E 009°35'3 6.6
2018-Jun-09 02:30N 54°16' E 009°37'3 5.1
2018-Jun-09 02:00N 54°17' E 009°40'3 6.0
2018-Jun-09 01:31N 54°20' E 009°44'3 6.6
2018-Jun-09 01:00N 54°22' E 009°48'5 8.0
2018-Jun-09 00:23N 54°20' E 009°56'3 6.6
2018-Jun-09 00:00N 54°21' E 010°00'4 7.4
2018-Jun-08 23:27N 54°22' E 010°07'1 1.4
2018-Jun-08 22:53N 54°22' E 010°09'1 3.1
2018-Jun-08 22:30N 54°22' E 010°10'611.2
2018-Jun-08 22:00N 54°27' E 010°14'511.0
2018-Jun-08 21:31N 54°31' E 010°21'713.2
2018-Jun-08 21:00N 54°34' E 010°32'613.0
2018-Jun-08 20:30N 54°35' E 010°43'713.0
2018-Jun-08 19:59N 54°36' E 010°54'613.4
2018-Jun-08 19:30N 54°36' E 011°05'713.2
2018-Jun-08 19:01N 54°34' E 011°16'713.7
2018-Jun-08 18:30N 54°31' E 011°27'713.6
2018-Jun-08 18:00N 54°29' E 011°38'713.3
2018-Jun-08 17:30N 54°27' E 011°49'713.4
2018-Jun-08 17:00N 54°27' E 012°00'612.0
2018-Jun-08 16:29N 54°29' E 012°10'1912.5
2018-Jun-08 14:58N 54°43' E 012°31'713.3
2018-Jun-08 14:27N 54°47' E 012°41'713.5
2018-Jun-08 13:58N 54°50' E 012°52'613.2
2018-Jun-08 13:30N 54°51' E 013°02'713.3
2018-Jun-08 12:59N 54°54' E 013°13'613.3
2018-Jun-08 12:30N 54°51' E 013°23'713.4
2018-Jun-08 12:00N 54°49' E 013°34'713.2
2018-Jun-08 11:30N 54°46' E 013°45'713.3
2018-Jun-08 10:59N 54°44' E 013°56'613.2
2018-Jun-08 10:30N 54°42' E 014°07'713.2
2018-Jun-08 10:00N 54°39' E 014°17'713.0
2018-Jun-08 09:27N 54°38' E 014°30'613.3
2018-Jun-08 09:00N 54°39' E 014°40'713.5
2018-Jun-08 08:30N 54°40' E 014°52'713.4
2018-Jun-08 08:00N 54°41' E 015°03'613.1
2018-Jun-08 07:30N 54°42' E 015°14'713.2
2018-Jun-08 07:00N 54°43' E 015°25'713.1
2018-Jun-08 06:30N 54°44' E 015°36'713.1
2018-Jun-08 06:00N 54°45' E 015°48'1113.1
2018-Jun-08 05:09N 54°47' E 016°07'  

Dump ship's entire track history